Time;durP1;ratioP1;P1;durP2;ratioP2;P2;SDS_P1;SDS_P2;PMS_P1;PMS_P2;Temp;Humidity;BMP_temperature;BMP_pressure;BME280_temperature;BME280_humidity;BME280_pressure;Samples;Min_cycle;Max_cycle;Signal;HPM_P1;HPM_P2
2022/02/17 00:00:36;;;;;;;17.67;8.20;;;4.50;87.20;;;;;;5015317;28;20232;-73
2022/02/17 00:03:02;;;;;;;15.90;9.23;;;4.40;87.60;;;;;;5014976;28;20622;-73
2022/02/17 00:05:28;;;;;;;13.47;8.93;;;4.40;87.70;;;;;;5012959;28;20315;-74
2022/02/17 00:07:56;;;;;;;13.17;7.67;;;4.40;87.60;;;;;;5011941;28;20658;-72
2022/02/17 00:10:23;;;;;;;12.10;8.53;;;4.40;87.40;;;;;;5011559;28;20670;-73
2022/02/17 00:12:50;;;;;;;8.70;7.40;;;4.40;87.60;;;;;;5009992;28;20181;-74
2022/02/17 00:15:16;;;;;;;13.50;8.27;;;4.40;87.60;;;;;;5015824;28;20181;-74
2022/02/17 00:17:42;;;;;;;19.03;9.17;;;4.40;87.30;;;;;;5012204;28;20220;-74
2022/02/17 00:20:09;;;;;;;12.53;8.43;;;4.40;87.30;;;;;;5017498;28;20576;-74
2022/02/17 00:22:36;;;;;;;13.33;8.17;;;4.30;87.40;;;;;;5012001;28;20239;-74
2022/02/17 00:25:02;;;;;;;14.60;8.10;;;4.30;87.60;;;;;;5013361;28;20223;-74
2022/02/17 00:27:28;;;;;;;15.30;8.10;;;4.30;87.60;;;;;;5011148;28;20185;-73
2022/02/17 00:29:54;;;;;;;13.27;7.90;;;4.30;87.60;;;;;;5005712;28;21911;-73
2022/02/17 00:32:19;;;;;;;15.33;8.67;;;4.20;87.70;;;;;;5010314;28;20181;-73
2022/02/17 00:34:45;;;;;;;15.80;8.43;;;4.20;87.80;;;;;;5009193;28;20184;-73
2022/02/17 00:37:11;;;;;;;16.67;8.30;;;4.10;88.00;;;;;;5011815;28;20224;-73
2022/02/17 00:39:36;;;;;;;13.40;8.63;;;4.10;88.30;;;;;;5009553;28;20276;-73
2022/02/17 00:42:03;;;;;;;12.07;6.73;;;4.10;88.30;;;;;;5014271;28;20189;-73
2022/02/17 00:44:29;;;;;;;15.07;8.20;;;4.00;88.30;;;;;;5012630;28;20213;-73
2022/02/17 00:46:55;;;;;;;12.80;8.20;;;3.90;88.50;;;;;;5007785;28;20195;-73
2022/02/17 00:49:23;;;;;;;17.13;8.73;;;3.90;88.70;;;;;;5007414;28;20848;-75
2022/02/17 00:51:49;;;;;;;15.87;8.73;;;3.90;88.80;;;;;;5007585;28;20177;-74
2022/02/17 00:54:14;;;;;;;14.37;9.00;;;3.90;88.70;;;;;;5017076;28;21007;-74
2022/02/17 00:56:40;;;;;;;8.47;6.90;;;3.90;88.70;;;;;;5012904;28;20180;-74
2022/02/17 00:59:06;;;;;;;12.87;8.23;;;3.80;88.70;;;;;;5009208;28;20277;-74
2022/02/17 01:01:31;;;;;;;10.17;6.80;;;3.80;88.60;;;;;;5010420;28;20619;-75
2022/02/17 01:03:57;;;;;;;13.90;7.83;;;3.80;88.60;;;;;;5006423;28;20296;-74
2022/02/17 01:06:23;;;;;;;11.87;7.50;;;3.80;88.80;;;;;;5007673;28;20176;-73
2022/02/17 01:08:48;;;;;;;9.10;7.57;;;3.70;88.80;;;;;;5014118;28;20211;-73
2022/02/17 01:11:14;;;;;;;15.57;9.13;;;3.80;88.80;;;;;;5012896;28;20191;-73
2022/02/17 01:13:40;;;;;;;14.57;7.77;;;3.80;88.70;;;;;;5009796;28;20295;-74
2022/02/17 01:16:06;;;;;;;12.40;8.27;;;3.80;88.90;;;;;;5009660;28;20188;-73
2022/02/17 01:18:32;;;;;;;14.60;9.27;;;3.80;88.90;;;;;;5007746;28;20181;-73
2022/02/17 01:20:58;;;;;;;14.67;8.00;;;3.70;89.00;;;;;;5008362;28;20191;-73
2022/02/17 01:23:24;;;;;;;16.50;9.57;;;3.60;89.30;;;;;;5012571;28;20200;-73
2022/02/17 01:25:50;;;;;;;20.90;8.70;;;3.60;89.70;;;;;;5006703;28;20228;-73
2022/02/17 01:28:16;;;;;;;14.27;8.57;;;3.50;89.90;;;;;;5011316;28;20187;-73
2022/02/17 01:30:42;;;;;;;16.70;8.47;;;3.50;89.90;;;;;;5010654;28;20180;-73
2022/02/17 01:33:08;;;;;;;13.43;8.60;;;3.50;90.00;;;;;;5006289;28;20678;-73
2022/02/17 01:35:34;;;;;;;10.87;6.93;;;3.50;90.00;;;;;;5010707;28;20729;-73
2022/02/17 01:38:00;;;;;;;11.37;8.13;;;3.50;89.90;;;;;;5008740;28;20897;-75
2022/02/17 01:40:25;;;;;;;18.07;8.77;;;3.50;90.00;;;;;;5006132;28;20728;-74
2022/02/17 01:42:51;;;;;;;16.40;8.97;;;3.50;89.90;;;;;;5005619;28;20181;-74
2022/02/17 01:45:17;;;;;;;14.43;7.53;;;3.40;89.90;;;;;;5007165;28;20213;-74
2022/02/17 01:47:47;;;;;;;20.10;8.73;;;3.40;90.00;;;;;;5005464;28;20187;-74
2022/02/17 01:50:13;;;;;;;15.90;9.73;;;3.40;90.10;;;;;;5008611;28;20196;-74
2022/02/17 01:52:40;;;;;;;13.80;8.83;;;3.40;90.10;;;;;;5014007;28;20263;-74
2022/02/17 01:55:06;;;;;;;15.83;10.10;;;3.40;89.90;;;;;;5014676;28;20267;-74
2022/02/17 01:57:33;;;;;;;15.93;6.83;;;3.30;90.00;;;;;;5005542;28;20567;-74
2022/02/17 01:59:59;;;;;;;13.70;7.80;;;3.30;90.40;;;;;;5004323;28;20192;-73
2022/02/17 02:02:24;;;;;;;8.57;7.03;;;3.30;90.10;;;;;;5006761;28;20191;-74
2022/02/17 02:04:50;;;;;;;10.63;7.00;;;3.30;90.20;;;;;;5011452;28;20802;-74
2022/02/17 02:07:16;;;;;;;19.33;7.13;;;3.30;90.20;;;;;;5012744;28;20216;-74
2022/02/17 02:09:42;;;;;;;10.33;6.10;;;3.30;90.20;;;;;;5010493;28;20200;-74
2022/02/17 02:12:09;;;;;;;21.00;7.67;;;3.30;90.10;;;;;;5009173;28;20187;-73
2022/02/17 02:14:36;;;;;;;13.67;7.37;;;3.30;90.00;;;;;;5010561;28;20189;-74
2022/02/17 02:17:03;;;;;;;15.17;7.07;;;3.30;89.90;;;;;;5006117;28;20176;-75
2022/02/17 02:19:29;;;;;;;13.63;7.90;;;3.30;89.90;;;;;;5005716;28;20268;-74
2022/02/17 02:21:56;;;;;;;14.43;8.23;;;3.30;89.90;;;;;;5008155;28;20191;-74
2022/02/17 02:24:21;;;;;;;9.63;7.17;;;3.20;89.70;;;;;;5013355;28;20216;-74
2022/02/17 02:26:47;;;;;;;14.47;8.37;;;3.20;89.80;;;;;;5011026;28;20697;-73
2022/02/17 02:29:13;;;;;;;14.10;7.17;;;3.10;90.10;;;;;;5010935;28;20230;-73
2022/02/17 02:31:39;;;;;;;13.13;7.40;;;3.10;90.20;;;;;;5010702;28;20279;-74
2022/02/17 02:34:04;;;;;;;12.07;8.17;;;3.10;90.40;;;;;;5006540;28;20200;-74
2022/02/17 02:36:30;;;;;;;8.57;7.07;;;3.10;90.10;;;;;;5008779;28;20238;-75
2022/02/17 02:51:30;;;;;;;16.33;7.97;;;2.80;91.40;;;;;;5084888;27;20601;-74
2022/02/17 02:53:56;;;;;;;15.63;8.80;;;2.70;91.60;;;;;;5087385;28;20180;-75
2022/02/17 02:56:22;;;;;;;17.40;9.90;;;2.70;91.80;;;;;;5086874;28;20200;-74
2022/02/17 02:58:48;;;;;;;18.70;9.93;;;2.60;91.90;;;;;;5090628;28;20190;-75
2022/02/17 03:01:14;;;;;;;19.83;9.47;;;2.60;92.00;;;;;;5088159;28;20185;-75
2022/02/17 03:03:39;;;;;;;25.40;11.17;;;2.60;92.60;;;;;;5093053;28;20278;-74
2022/02/17 03:06:05;;;;;;;18.97;9.87;;;2.70;92.40;;;;;;5087565;28;20187;-75
2022/02/17 03:08:31;;;;;;;22.63;10.20;;;2.70;92.50;;;;;;5092528;28;20182;-75
2022/02/17 03:10:57;;;;;;;18.23;10.00;;;2.80;92.20;;;;;;5083582;28;20233;-75
2022/02/17 03:13:22;;;;;;;17.13;10.00;;;2.80;91.90;;;;;;5076879;28;20175;-74
2022/02/17 03:15:48;;;;;;;16.77;9.70;;;2.90;91.80;;;;;;5082706;28;20728;-74
2022/02/17 03:18:14;;;;;;;20.10;11.00;;;3.00;91.60;;;;;;5086627;28;20183;-75
2022/02/17 03:20:40;;;;;;;25.03;11.63;;;3.00;91.50;;;;;;5084648;28;20227;-74
2022/02/17 03:23:06;;;;;;;18.80;10.17;;;3.00;91.90;;;;;;5085837;28;20570;-74
2022/02/17 03:25:31;;;;;;;12.53;8.47;;;3.00;91.60;;;;;;5086590;28;20185;-74
2022/02/17 03:27:57;;;;;;;22.20;11.20;;;3.00;91.50;;;;;;5086238;28;20182;-74
2022/02/17 03:30:23;;;;;;;16.23;10.23;;;3.00;91.80;;;;;;5088453;28;20723;-74
2022/02/17 03:32:49;;;;;;;20.07;9.77;;;3.00;91.80;;;;;;5089128;28;20177;-74
2022/02/17 03:35:14;;;;;;;16.77;10.10;;;2.90;91.90;;;;;;5082697;28;20189;-75
2022/02/17 03:37:40;;;;;;;20.23;10.00;;;3.00;91.80;;;;;;5088428;28;20212;-74
2022/02/17 03:40:07;;;;;;;17.40;9.23;;;2.90;91.80;;;;;;5085682;28;20186;-74
2022/02/17 03:42:32;;;;;;;16.90;9.53;;;2.90;92.30;;;;;;5087133;28;20299;-74
2022/02/17 03:44:58;;;;;;;19.60;10.53;;;2.90;91.90;;;;;;5085450;28;20178;-74
2022/02/17 03:47:24;;;;;;;16.70;9.33;;;2.90;92.00;;;;;;5083871;28;20220;-74
2022/02/17 03:49:50;;;;;;;17.60;9.50;;;2.90;91.80;;;;;;5086428;28;20214;-74
2022/02/17 03:52:15;;;;;;;18.70;8.73;;;2.90;91.80;;;;;;5086271;28;20299;-73
2022/02/17 03:54:41;;;;;;;15.57;9.47;;;2.90;91.80;;;;;;5084391;28;20186;-74
2022/02/17 03:57:07;;;;;;;12.97;8.57;;;2.90;91.60;;;;;;5083483;28;20193;-74
2022/02/17 03:59:32;;;;;;;17.70;9.07;;;2.90;91.40;;;;;;5082051;28;20178;-73
2022/02/17 04:01:59;;;;;;;16.73;8.43;;;2.90;91.40;;;;;;5070317;28;20230;-74
2022/02/17 04:04:25;;;;;;;12.93;8.20;;;3.00;91.20;;;;;;5065612;28;20182;-73
2022/02/17 04:06:51;;;;;;;14.20;7.77;;;2.90;91.10;;;;;;5070831;28;20639;-73
2022/02/17 04:09:17;;;;;;;16.67;8.77;;;2.90;91.20;;;;;;5065780;28;20577;-75
2022/02/17 04:11:42;;;;;;;15.80;9.23;;;2.90;91.30;;;;;;5064077;28;20245;-75
2022/02/17 04:14:08;;;;;;;17.13;8.70;;;2.90;91.30;;;;;;5071321;28;20185;-75
2022/02/17 04:16:34;;;;;;;14.57;8.60;;;2.90;91.30;;;;;;5066051;28;20267;-75
2022/02/17 04:18:59;;;;;;;13.97;8.20;;;2.90;91.40;;;;;;5065837;28;20185;-75
2022/02/17 04:21:25;;;;;;;11.47;8.77;;;3.00;91.20;;;;;;5069578;28;20575;-74
2022/02/17 04:23:51;;;;;;;21.57;8.93;;;3.00;91.20;;;;;;5066979;28;20244;-74
2022/02/17 04:26:19;;;;;;;14.40;8.43;;;3.00;91.00;;;;;;5065942;28;20541;-74
2022/02/17 04:28:46;;;;;;;14.57;9.07;;;3.00;90.90;;;;;;5063284;28;20244;-75
2022/02/17 04:31:13;;;;;;;16.60;8.93;;;3.10;91.00;;;;;;5072641;28;20411;-74
2022/02/17 04:33:41;;;;;;;19.20;10.33;;;3.00;91.10;;;;;;5066740;28;20189;-74
2022/02/17 04:36:07;;;;;;;16.70;10.13;;;3.00;91.80;;;;;;5063226;28;20267;-73
2022/02/17 04:38:33;;;;;;;17.17;10.47;;;3.00;91.30;;;;;;5062542;28;20182;-75
2022/02/17 04:43:44;;;;;;;17.90;8.53;;;3.00;91.80;;;;;;5072711;28;20679;-74
2022/02/17 04:46:10;;;;;;;16.73;10.00;;;3.00;91.90;;;;;;5068049;28;20179;-75
2022/02/17 04:48:36;;;;;;;18.30;10.07;;;3.00;92.10;;;;;;5061034;28;20178;-74
2022/02/17 04:51:03;;;;;;;14.67;9.47;;;3.00;92.20;;;;;;5073013;28;20210;-75
2022/02/17 04:53:29;;;;;;;20.60;9.93;;;3.00;92.00;;;;;;5065513;28;20178;-74
2022/02/17 04:55:54;;;;;;;14.93;8.30;;;3.00;92.30;;;;;;5067099;28;20183;-74
2022/02/17 04:58:22;;;;;;;19.67;9.27;;;3.00;92.40;;;;;;5061782;28;20586;-74
2022/02/17 05:00:49;;;;;;;12.87;9.07;;;3.00;92.20;;;;;;5060413;28;21496;-74
2022/02/17 05:03:15;;;;;;;14.73;9.20;;;3.10;92.30;;;;;;5069477;28;20183;-74
2022/02/17 05:05:41;;;;;;;12.03;7.10;;;3.10;92.10;;;;;;5070241;28;20202;-75
2022/02/17 05:08:07;;;;;;;8.50;5.93;;;3.10;92.10;;;;;;5068026;28;20600;-74
2022/02/17 05:10:32;;;;;;;15.60;8.13;;;3.20;91.90;;;;;;5064723;28;20215;-74
2022/02/17 05:12:58;;;;;;;11.10;7.13;;;3.30;91.80;;;;;;5069373;28;20198;-75
2022/02/17 05:15:24;;;;;;;10.10;7.77;;;3.30;91.70;;;;;;5065406;28;20262;-75
2022/02/17 05:17:50;;;;;;;10.60;7.63;;;3.40;91.60;;;;;;5066531;28;20671;-74
2022/02/17 05:20:15;;;;;;;11.47;7.40;;;3.40;91.50;;;;;;5074581;28;20230;-74
2022/02/17 05:22:45;;;;;;;11.43;7.53;;;3.50;91.30;;;;;;5066543;28;20183;-74
2022/02/17 05:25:13;;;;;;;18.27;8.00;;;3.50;91.00;;;;;;5068782;28;20265;-75
2022/02/17 05:27:40;;;;;;;13.23;8.37;;;3.50;90.90;;;;;;5068901;28;20198;-74
2022/02/17 05:30:07;;;;;;;15.13;7.90;;;3.40;91.00;;;;;;5066107;28;20274;-74
2022/02/17 05:32:37;;;;;;;10.23;7.70;;;3.40;91.20;;;;;;5071493;28;20191;-74
2022/02/17 05:35:03;;;;;;;11.30;7.53;;;3.40;91.40;;;;;;5067633;28;20182;-74
2022/02/17 05:37:29;;;;;;;16.30;9.70;;;3.30;91.40;;;;;;5069514;28;20225;-74
2022/02/17 05:39:55;;;;;;;11.53;8.23;;;3.30;91.60;;;;;;5066464;28;20282;-75
2022/02/17 05:42:20;;;;;;;7.60;6.27;;;3.30;91.70;;;;;;5066183;28;20194;-74
2022/02/17 05:44:46;;;;;;;10.20;7.10;;;3.30;91.80;;;;;;5071544;28;20569;-74
2022/02/17 05:47:12;;;;;;;11.27;6.50;;;3.30;91.80;;;;;;5069166;28;21427;-74
2022/02/17 05:49:37;;;;;;;13.23;7.87;;;3.40;91.80;;;;;;5075327;28;20190;-74
2022/02/17 05:52:03;;;;;;;19.40;7.57;;;3.40;91.80;;;;;;5071913;28;20885;-75
2022/02/17 05:54:29;;;;;;;11.43;7.13;;;3.40;91.80;;;;;;5070429;28;21035;-74
2022/02/17 05:56:55;;;;;;;11.60;7.17;;;3.40;91.70;;;;;;5071673;28;20960;-74
2022/02/17 05:59:20;;;;;;;13.10;6.97;;;3.40;91.80;;;;;;5067326;28;20320;-74
2022/02/17 06:01:46;;;;;;;11.97;6.57;;;3.50;91.80;;;;;;5069214;28;20212;-75
2022/02/17 06:04:12;;;;;;;13.23;8.53;;;3.50;91.80;;;;;;5063768;28;20176;-75
2022/02/17 06:06:38;;;;;;;26.50;8.07;;;3.60;91.70;;;;;;5071353;28;20190;-75
2022/02/17 06:09:04;;;;;;;17.70;8.40;;;3.70;91.60;;;;;;5063912;28;20178;-74
2022/02/17 06:11:30;;;;;;;12.50;7.37;;;3.90;91.60;;;;;;5071079;28;20194;-74
2022/02/17 06:13:56;;;;;;;8.50;6.40;;;;;;;;;;5066765;28;20272;-73
2022/02/17 06:16:22;;;;;;;12.33;6.20;;;4.00;91.30;;;;;;5069965;28;20215;-77
2022/02/17 06:18:48;;;;;;;18.40;7.20;;;4.00;91.30;;;;;;5063559;28;20281;-77
2022/02/17 06:21:14;;;;;;;12.13;7.03;;;;;;;;;;5068736;28;20601;-79
2022/02/17 06:23:40;;;;;;;13.37;7.70;;;;;;;;;;5063098;28;20252;-80
2022/02/17 06:26:07;;;;;;;15.27;6.53;;;4.40;90.90;;;;;;5062512;28;20189;-79
2022/02/17 06:28:33;;;;;;;9.60;7.60;;;;;;;;;;5068477;28;20616;-78
2022/02/17 06:30:59;;;;;;;17.17;8.47;;;4.50;90.50;;;;;;5065960;28;20210;-76
2022/02/17 06:33:25;;;;;;;14.07;8.60;;;4.60;90.60;;;;;;5060760;28;20626;-75
2022/02/17 06:35:50;;;;;;;13.67;8.50;;;4.70;90.50;;;;;;5072613;28;20265;-76
2022/02/17 06:38:16;;;;;;;16.63;8.07;;;4.90;90.10;;;;;;5067587;28;20614;-75
2022/02/17 06:40:42;;;;;;;18.17;9.80;;;;;;;;;;5064163;28;20231;-75
2022/02/17 06:43:10;;;;;;;12.73;8.67;;;5.10;89.70;;;;;;5069706;28;20261;-76
2022/02/17 06:45:39;;;;;;;15.50;9.37;;;5.10;89.60;;;;;;5060071;28;20178;-75
2022/02/17 06:48:06;;;;;;;23.90;11.60;;;5.20;89.60;;;;;;5068279;28;20213;-75
2022/02/17 06:50:32;;;;;;;25.37;13.37;;;5.30;88.90;;;;;;5067131;28;20232;-76
2022/02/17 06:52:58;;;;;;;17.23;9.87;;;5.30;88.90;;;;;;5068576;28;20192;-75
2022/02/17 06:55:24;;;;;;;20.47;10.30;;;5.40;88.80;;;;;;5069959;28;20187;-76
2022/02/17 06:57:49;;;;;;;26.40;11.77;;;5.40;88.80;;;;;;5068188;28;20198;-74
2022/02/17 07:00:16;;;;;;;17.60;9.63;;;5.50;88.70;;;;;;5062660;28;20221;-75
2022/02/17 07:02:50;;;;;;;19.00;9.10;;;5.70;88.40;;;;;;5070358;28;20182;-77
2022/02/17 07:05:16;;;;;;;19.33;11.90;;;5.70;88.30;;;;;;5060264;28;20190;-75
2022/02/17 07:07:42;;;;;;;30.60;14.80;;;5.70;88.30;;;;;;5064874;28;20652;-76
2022/02/17 07:10:09;;;;;;;27.17;13.97;;;5.70;87.50;;;;;;5072403;28;20175;-76
2022/02/17 07:12:35;;;;;;;29.17;13.10;;;5.70;87.50;;;;;;5068272;28;20269;-75
2022/02/17 07:15:02;;;;;;;32.47;14.63;;;5.70;87.50;;;;;;5064148;28;20193;-75
2022/02/17 07:17:28;;;;;;;27.63;15.63;;;5.80;87.20;;;;;;5061498;28;20186;-75
2022/02/17 07:19:54;;;;;;;34.90;17.17;;;5.90;87.00;;;;;;5065987;28;20202;-76
2022/02/17 07:22:20;;;;;;;27.17;15.83;;;5.90;87.10;;;;;;5069300;28;21594;-75
2022/02/17 07:24:46;;;;;;;41.93;16.77;;;6.00;87.00;;;;;;5065815;28;20182;-75
2022/02/17 07:27:12;;;;;;;32.77;17.27;;;6.20;86.90;;;;;;5071836;28;20190;-75
2022/02/17 07:29:38;;;;;;;28.53;16.47;;;6.30;86.40;;;;;;5070307;28;20182;-75
2022/02/17 07:32:08;;;;;;;34.97;17.70;;;6.50;86.20;;;;;;5067764;28;21016;-77
2022/02/17 07:34:34;;;;;;;34.77;19.07;;;6.60;86.10;;;;;;5064519;28;20704;-77
2022/02/17 07:37:00;;;;;;;41.70;17.87;;;6.70;85.20;;;;;;5073631;28;20230;-76
2022/02/17 07:40:20;;;;;;;30.67;17.47;;;6.80;85.30;;;;;;5083546;28;20294;-76
2022/02/17 07:42:47;;;;;;;33.70;17.10;;;6.90;85.30;;;;;;5082550;28;20275;-77
2022/02/17 07:45:13;;;;;;;32.43;17.97;;;7.10;85.00;;;;;;5091238;28;20192;-77
2022/02/17 07:47:45;;;;;;;34.50;17.87;;;7.30;84.50;;;;;;5085629;28;20220;-76
2022/02/17 07:50:15;;;;;;;32.07;17.70;;;7.60;84.80;;;;;;5082047;28;20186;-76
2022/02/17 07:52:42;;;;;;;25.70;15.40;;;8.10;85.00;;;;;;5088677;28;20204;-74
2022/02/17 07:55:08;;;;;;;27.57;14.80;;;8.70;83.70;;;;;;5081948;28;20278;-74
2022/02/17 07:57:34;;;;;;;35.87;17.10;;;9.40;82.60;;;;;;5085230;28;20223;-74
2022/02/17 08:00:00;;;;;;;29.70;16.60;;;10.20;82.20;;;;;;5085166;28;20213;-73
2022/02/17 08:02:25;;;;;;;33.17;18.03;;;10.90;81.40;;;;;;5083329;28;20179;-73
2022/02/17 08:04:51;;;;;;;34.60;19.55;;;11.80;81.00;;;;;;5086692;28;20186;-74
2022/02/17 08:07:17;;;;;;;37.55;19.55;;;12.70;77.40;;;;;;5087170;28;20177;-75
2022/02/17 08:09:42;;;;;;;35.42;19.05;;;13.60;76.70;;;;;;5084619;28;20182;-75
2022/02/17 08:12:08;;;;;;;34.42;18.75;;;14.50;74.80;;;;;;5084029;28;20911;-75
2022/02/17 08:14:34;;;;;;;33.88;17.77;;;15.30;72.10;;;;;;5088770;28;20260;-74
2022/02/17 08:17:00;;;;;;;32.00;16.92;;;16.10;69.60;;;;;;5081720;28;20170;-77
2022/02/17 08:19:25;;;;;;;37.85;18.73;;;16.80;67.50;;;;;;5081330;28;20653;-77
2022/02/17 08:21:51;;;;;;;28.70;17.88;;;17.40;66.40;;;;;;5093437;28;20177;-74
2022/02/17 08:24:17;;;;;;;33.30;18.40;;;18.00;63.90;;;;;;5086612;28;20190;-76
2022/02/17 08:26:44;;;;;;;36.22;19.13;;;18.60;63.50;;;;;;5083464;28;20218;-76
2022/02/17 08:29:11;;;;;;;36.22;18.73;;;19.10;61.30;;;;;;5085717;28;20193;-75
2022/02/17 08:31:38;;;;;;;30.95;17.90;;;19.50;60.40;;;;;;5084026;28;20201;-75
2022/02/17 08:34:04;;;;;;;26.67;16.83;;;20.00;59.60;;;;;;5081361;28;20181;-77
2022/02/17 08:36:31;;;;;;;30.13;17.20;;;20.50;58.70;;;;;;5086412;28;20603;-76
2022/02/17 08:38:57;;;;;;;22.27;15.40;;;20.90;58.50;;;;;;5084043;28;20567;-75
2022/02/17 08:41:26;;;;;;;24.75;16.02;;;21.40;57.80;;;;;;5084034;28;20175;-76
2022/02/17 08:43:52;;;;;;;27.52;17.60;;;21.80;58.10;;;;;;5083785;28;20179;-77
2022/02/17 08:46:20;;;;;;;24.58;17.30;;;22.30;56.20;;;;;;5084648;28;20180;-77
2022/02/17 08:48:47;;;;;;;32.47;18.50;;;22.70;55.70;;;;;;5084542;28;20205;-77
2022/02/17 08:51:16;;;;;;;29.58;18.80;;;23.10;56.40;;;;;;5073480;28;20701;-77
2022/02/17 08:53:45;;;;;;;25.08;17.95;;;23.50;55.30;;;;;;5071333;28;20181;-77
2022/02/17 08:56:11;;;;;;;25.27;17.10;;;23.70;53.80;;;;;;5071762;28;20182;-77
2022/02/17 08:58:36;;;;;;;28.80;18.05;;;23.90;53.50;;;;;;5068805;28;20226;-77
2022/02/17 09:01:02;;;;;;;25.58;17.10;;;24.10;51.80;;;;;;5070402;28;20179;-77
2022/02/17 09:03:28;;;;;;;25.98;18.13;;;24.30;52.90;;;;;;5073905;28;20241;-77
2022/02/17 09:05:54;;;;;;;25.88;17.73;;;24.50;52.80;;;;;;5071916;28;20692;-77
2022/02/17 09:08:20;;;;;;;27.48;17.58;;;24.80;52.10;;;;;;5069565;28;20310;-77
2022/02/17 09:10:46;;;;;;;29.80;16.27;;;25.10;50.90;;;;;;5079293;28;20286;-77
2022/02/17 09:13:12;;;;;;;28.20;16.48;;;25.30;50.80;;;;;;5068787;28;20187;-77
2022/02/17 09:15:39;;;;;;;28.15;16.58;;;25.60;51.00;;;;;;5067712;28;20198;-76
2022/02/17 09:18:04;;;;;;;29.30;17.20;;;25.90;50.20;;;;;;5075996;28;20189;-77
2022/02/17 09:20:32;;;;;;;24.08;15.65;;;26.10;48.60;;;;;;5068215;28;20846;-77
2022/02/17 09:22:59;;;;;;;27.65;15.70;;;26.30;49.20;;;;;;5066858;28;20178;-75
2022/02/17 09:25:24;;;;;;;28.38;16.83;;;26.50;49.40;;;;;;5071982;28;20236;-75
2022/02/17 09:27:50;;;;;;;23.52;15.60;;;26.80;48.20;;;;;;5065065;28;20183;-76
2022/02/17 09:30:16;;;;;;;27.20;18.08;;;27.10;48.80;;;;;;5072423;28;20215;-76
2022/02/17 09:32:42;;;;;;;23.77;16.67;;;27.40;48.10;;;;;;5066651;28;20179;-76
2022/02/17 09:35:11;;;;;;;22.80;16.73;;;27.70;48.10;;;;;;5062993;28;20189;-75
2022/02/17 09:37:37;;;;;;;21.95;16.30;;;27.90;46.60;;;;;;5065530;28;20240;-76
2022/02/17 09:40:06;;;;;;;21.63;15.52;;;27.40;44.40;;;;;;5073215;28;20197;-77
2022/02/17 09:42:37;;;;;;;22.92;14.43;;;27.50;47.90;;;;;;5067879;28;20185;-77
2022/02/17 09:47:26;;;;;;;20.65;15.30;;;28.00;47.30;;;;;;5085901;28;20291;-77
2022/02/17 09:49:53;;;;;;;20.75;14.43;;;28.20;47.10;;;;;;5086985;28;20178;-75
2022/02/17 09:52:18;;;;;;;25.33;15.00;;;28.50;45.20;;;;;;5084879;28;20259;-76
2022/02/17 09:54:45;;;;;;;27.27;14.98;;;;;;;;;;5084217;28;20178;-78
2022/02/17 09:57:11;;;;;;;25.73;14.82;;;;;;;;;;5082853;28;20189;-76
2022/02/17 09:59:37;;;;;;;23.98;14.95;;;28.60;46.00;;;;;;5086919;28;20190;-76
2022/02/17 10:02:06;;;;;;;21.67;14.70;;;28.70;45.80;;;;;;5081951;28;20186;-76
2022/02/17 10:04:33;;;;;;;20.60;14.57;;;28.80;45.80;;;;;;5084097;28;20192;-76
2022/02/17 10:07:01;;;;;;;22.30;16.10;;;28.60;45.60;;;;;;5085245;28;20217;-76
2022/02/17 10:09:39;;;;;;;27.10;15.63;;;28.60;46.30;;;;;;5086621;28;20191;-76
2022/02/17 10:12:07;;;;;;;19.98;15.32;;;28.50;46.20;;;;;;5085167;28;20206;-75
2022/02/17 10:14:33;;;;;;;23.95;16.05;;;28.70;46.00;;;;;;5082900;28;20192;-75
2022/02/17 10:17:00;;;;;;;25.05;16.65;;;;;;;;;;5085396;28;20375;-75
2022/02/17 10:19:28;;;;;;;19.52;15.23;;;28.00;45.20;;;;;;5083038;28;20659;-75
2022/02/17 10:22:08;;;;;;;32.47;16.30;;;27.40;45.80;;;;;;5086254;28;20182;-76
2022/02/17 10:24:57;;;;;;;23.27;16.02;;;26.80;46.50;;;;;;5080659;28;20182;-76
2022/02/17 10:27:28;;;;;;;27.00;16.00;;;26.00;47.70;;;;;;5084122;28;20582;-75
2022/02/17 10:29:57;;;;;;;25.55;15.63;;;;;;;;;;5083788;28;20182;-76
2022/02/17 10:32:23;;;;;;;27.38;16.95;;;25.70;48.10;;;;;;5086141;28;21018;-76
2022/02/17 10:35:12;;;;;;;26.55;15.95;;;25.70;49.10;;;;;;5082602;28;20798;-75
2022/02/17 10:37:52;;;;;;;25.48;15.48;;;25.80;47.30;;;;;;5085364;28;20179;-75
2022/02/17 10:40:28;;;;;;;26.25;16.40;;;25.40;47.70;;;;;;5084546;28;20188;-76
2022/02/17 10:43:07;;;;;;;21.85;15.25;;;24.90;49.00;;;;;;5082926;28;20796;-76
2022/02/17 10:45:34;;;;;;;28.35;15.80;;;24.50;49.00;;;;;;5085262;28;20321;-75
2022/02/17 10:48:14;;;;;;;37.70;15.90;;;;;;;;;;5084975;28;20237;-76
2022/02/17 10:50:40;;;;;;;24.48;14.57;;;23.90;50.70;;;;;;5093031;28;20186;-77
2022/02/17 10:53:21;;;;;;;19.85;14.30;;;23.80;50.00;;;;;;5093374;28;20676;-75
2022/02/17 10:56:04;;;;;;;20.17;12.32;;;23.70;50.70;;;;;;5085660;28;20182;-76
2022/02/17 10:58:47;;;;;;;10.32;7.70;;;23.40;48.80;;;;;;5077956;28;20182;-76
2022/02/17 11:01:17;;;;;;;15.85;11.80;;;22.60;51.00;;;;;;5071379;28;20264;-74
2022/02/17 11:03:43;;;;;;;17.10;13.27;;;;;;;;;;5077601;28;20274;-75
2022/02/17 11:06:15;;;;;;;19.55;13.18;;;22.40;51.70;;;;;;5074807;28;20214;-75
2022/02/17 11:08:48;;;;;;;21.38;12.90;;;22.50;51.00;;;;;;5085423;28;20193;-76
2022/02/17 11:11:15;;;;;;;19.10;12.65;;;22.50;52.20;;;;;;5077219;28;20277;-76
2022/02/17 11:13:49;;;;;;;14.98;10.70;;;23.00;52.70;;;;;;5073829;28;20261;-75
2022/02/17 11:16:15;;;;;;;14.52;9.55;;;;;;;;;;5075246;28;20220;-76
2022/02/17 11:18:42;;;;;;;19.10;8.75;;;24.20;50.80;;;;;;5070536;28;20191;-77
2022/02/17 11:21:14;;;;;;;9.85;6.95;;;24.50;50.50;;;;;;5075940;28;20206;-75
2022/02/17 11:23:41;;;;;;;6.00;5.50;;;24.90;49.30;;;;;;5076379;28;20273;-75
2022/02/17 11:26:24;;;;;;;4.15;3.80;;;24.90;48.40;;;;;;5069844;28;20217;-76
2022/02/17 11:28:50;;;;;;;3.25;3.05;;;;;;;;;;5072606;28;20180;-75
2022/02/17 11:31:16;;;;;;;4.10;3.75;;;24.70;49.10;;;;;;5066803;28;20244;-74
2022/02/17 11:33:53;;;;;;;5.07;3.75;;;24.30;48.50;;;;;;5079070;28;20669;-74
2022/02/17 11:36:21;;;;;;;5.18;3.40;;;;;;;;;;5073166;28;20732;-74
2022/02/17 11:38:59;;;;;;;6.57;3.90;;;23.40;49.60;;;;;;5070463;28;20194;-75
2022/02/17 11:41:35;;;;;;;4.53;4.03;;;;;;;;;;5070333;28;20190;-74
2022/02/17 11:44:13;;;;;;;3.67;3.38;;;22.20;51.20;;;;;;5075886;28;20206;-74
2022/02/17 11:46:41;;;;;;;3.38;3.17;;;21.80;51.90;;;;;;5066354;28;20209;-74
2022/02/17 11:49:31;;;;;;;4.90;4.38;;;21.30;52.90;;;;;;5070399;28;20704;-72
2022/02/17 11:52:09;;;;;;;6.20;4.15;;;21.00;53.30;;;;;;5068142;28;20838;-74
2022/02/17 11:54:36;;;;;;;4.75;3.35;;;;;;;;;;5074146;28;20179;-76
2022/02/17 11:57:02;;;;;;;2.88;2.67;;;20.90;53.70;;;;;;5075111;28;21278;-74
2022/02/17 11:59:31;;;;;;;2.13;2.00;;;20.90;53.60;;;;;;5074403;28;20297;-75
2022/02/17 12:01:59;;;;;;;4.80;2.05;;;20.70;53.40;;;;;;5075556;28;20307;-76
2022/02/17 12:04:27;;;;;;;1.73;1.30;;;20.20;53.40;;;;;;5076183;28;20185;-75
2022/02/17 12:07:01;;;;;;;1.60;1.60;;;19.60;53.70;;;;;;5071437;28;20256;-75
2022/02/17 12:11:56;;;;;;;1.88;1.17;;;18.90;54.80;;;;;;5071640;28;20190;-75
2022/02/17 12:14:23;;;;;;;0.98;0.98;;;18.60;55.40;;;;;;5069295;28;20183;-75
2022/02/17 12:16:58;;;;;;;8.27;1.63;;;18.60;55.40;;;;;;5074075;28;20288;-75
2022/02/17 12:19:27;;;;;;;1.77;1.55;;;18.70;56.30;;;;;;5071792;28;20262;-73
2022/02/17 12:21:54;;;;;;;1.45;1.35;;;18.90;55.50;;;;;;5071071;28;20192;-75
2022/02/17 12:24:20;;;;;;;1.92;1.83;;;18.90;55.80;;;;;;5067391;28;20264;-75
2022/02/17 12:26:50;;;;;;;2.00;1.90;;;19.10;55.50;;;;;;5068946;28;20306;-75
2022/02/17 12:29:20;;;;;;;1.67;1.48;;;;;;;;;;5070713;28;20213;-75
2022/02/17 12:31:47;;;;;;;1.67;1.65;;;19.60;53.80;;;;;;5073909;28;20184;-75
2022/02/17 12:34:12;;;;;;;1.73;1.73;;;19.60;53.60;;;;;;5073498;28;20950;-75
2022/02/17 12:36:38;;;;;;;3.00;1.63;;;19.40;53.40;;;;;;5066317;28;20193;-75
2022/02/17 12:39:05;;;;;;;1.42;1.42;;;19.50;54.20;;;;;;5073167;28;20194;-75
2022/02/17 12:41:31;;;;;;;1.95;1.75;;;19.40;53.00;;;;;;5071175;28;20187;-76
2022/02/17 12:43:56;;;;;;;1.33;1.30;;;19.60;52.50;;;;;;5070490;28;20186;-76
2022/02/17 12:46:22;;;;;;;2.58;1.58;;;19.70;52.10;;;;;;5074395;28;20222;-76
2022/02/17 12:48:49;;;;;;;0.90;0.90;;;;;;;;;;5069215;28;20217;-75
2022/02/17 12:51:31;;;;;;;3.33;0.68;;;19.70;51.70;;;;;;5071860;28;20951;-76
2022/02/17 12:53:57;;;;;;;1.00;1.00;;;19.70;51.70;;;;;;5073551;28;20571;-75
2022/02/17 12:56:32;;;;;;;1.17;1.08;;;19.10;51.00;;;;;;5069307;28;20183;-76
2022/02/17 12:59:13;;;;;;;3.08;0.98;;;18.60;51.90;;;;;;5065264;28;20209;-75
2022/02/17 13:01:54;;;;;;;0.80;0.80;;;18.10;52.50;;;;;;5073146;28;20957;-75
2022/02/17 13:04:20;;;;;;;1.10;1.10;;;17.90;53.30;;;;;;5070498;28;20186;-76
2022/02/17 13:06:46;;;;;;;1.30;0.70;;;17.70;53.60;;;;;;5075198;28;20211;-74